createdAt,value
2019-05-12T00:04:18.935Z,21.73
2019-05-12T00:09:22.431Z,21.70
2019-05-12T00:14:28.209Z,21.73
2019-05-12T00:19:31.731Z,21.73
2019-05-12T00:24:35.509Z,21.72
2019-05-12T00:29:39.264Z,21.72
2019-05-12T00:34:43.034Z,21.70
2019-05-12T00:39:47.819Z,21.70
2019-05-12T00:44:51.739Z,21.70
2019-05-12T00:49:55.528Z,21.68
2019-05-12T00:54:59.338Z,21.65
2019-05-12T01:00:03.270Z,21.65
2019-05-12T01:05:08.602Z,21.67
2019-05-12T01:10:12.680Z,21.66
2019-05-12T01:15:17.777Z,21.66
2019-05-12T01:20:21.780Z,21.68
2019-05-12T01:25:25.733Z,21.69
2019-05-12T01:30:29.546Z,21.73
2019-05-12T01:35:33.401Z,21.72
2019-05-12T01:40:39.395Z,21.73
2019-05-12T01:45:42.875Z,21.69
2019-05-12T01:55:51.094Z,21.71
2019-05-12T02:00:54.866Z,21.71
2019-05-12T02:06:00.050Z,21.74
2019-05-12T02:11:21.696Z,21.74
2019-05-12T02:16:28.060Z,21.73
2019-05-12T02:21:31.051Z,21.72
2019-05-12T02:26:34.875Z,21.64
2019-05-12T02:31:39.745Z,21.63
2019-05-12T02:36:44.805Z,21.63
2019-05-12T02:41:49.099Z,21.62
2019-05-12T02:46:55.278Z,21.61
2019-05-12T02:51:58.339Z,21.57
2019-05-12T02:57:04.332Z,21.57
2019-05-12T03:02:07.848Z,21.59
2019-05-12T03:07:15.270Z,21.56
2019-05-12T03:12:17.741Z,21.55
2019-05-12T03:17:24.923Z,21.54
2019-05-12T03:22:27.147Z,21.54
2019-05-12T03:27:30.965Z,21.46
2019-05-12T03:32:37.878Z,21.54
2019-05-12T03:37:40.247Z,21.54
2019-05-12T03:42:44.577Z,21.54
2019-05-12T03:47:48.522Z,21.52
2019-05-12T03:52:52.301Z,21.51
2019-05-12T03:57:56.120Z,21.51
2019-05-12T04:02:59.988Z,21.50
2019-05-12T04:08:05.530Z,21.50
2019-05-12T04:13:09.472Z,21.50
2019-05-12T04:18:15.964Z,21.48
2019-05-12T04:23:18.752Z,21.48
2019-05-12T04:28:24.588Z,21.48
2019-05-12T04:33:28.036Z,21.52
2019-05-12T04:38:35.261Z,21.49
2019-05-12T04:43:37.381Z,21.46
2019-05-12T04:48:41.241Z,21.44
2019-05-12T04:53:45.163Z,21.47
2019-05-12T04:58:49.017Z,21.44
2019-05-12T05:03:54.541Z,21.46
2019-05-12T05:08:58.528Z,21.40
2019-05-12T05:14:04.226Z,21.42
2019-05-12T05:19:07.843Z,21.40
2019-05-12T05:24:14.042Z,21.39
2019-05-12T05:29:17.228Z,21.43
2019-05-12T05:34:21.092Z,21.43
2019-05-12T05:39:24.956Z,21.45
2019-05-12T05:44:29.160Z,21.45
2019-05-12T05:49:36.570Z,21.49
2019-05-12T05:54:40.367Z,21.49
2019-05-12T05:59:44.702Z,21.49
2019-05-12T06:04:50.213Z,21.53
2019-05-12T06:09:54.293Z,21.54
2019-05-12T06:14:59.831Z,21.55
2019-05-12T06:20:04.459Z,21.56
2019-05-12T06:25:08.690Z,21.56
2019-05-12T06:30:14.808Z,21.60
2019-05-12T06:35:17.949Z,21.62
2019-05-12T06:40:23.729Z,21.61
2019-05-12T06:45:28.381Z,21.63
2019-05-12T06:50:36.933Z,21.64
2019-05-12T06:55:39.457Z,21.64
2019-05-12T07:00:43.891Z,21.64
2019-05-12T07:05:48.246Z,17.44
2019-05-12T07:11:01.807Z,17.44
2019-05-12T07:15:59.183Z,18.43
2019-05-12T07:21:04.114Z,19.70
2019-05-12T07:26:13.975Z,19.70
2019-05-12T07:31:14.206Z,20.37
2019-05-12T07:36:18.533Z,20.52
2019-05-12T07:41:23.778Z,20.53
2019-05-12T07:46:28.088Z,20.72
2019-05-12T07:51:38.783Z,20.63
2019-05-12T07:56:40.684Z,20.99
2019-05-12T08:01:50.133Z,20.99
2019-05-12T08:06:48.643Z,20.83
2019-05-12T08:11:54.061Z,20.88
2019-05-12T08:17:02.090Z,20.83
2019-05-12T08:22:04.261Z,20.91
2019-05-12T08:27:08.442Z,20.86
2019-05-12T08:32:15.978Z,20.86
2019-05-12T08:37:17.811Z,20.93
2019-05-12T08:42:23.852Z,20.99
2019-05-12T08:47:28.969Z,20.97
2019-05-12T08:52:37.029Z,21.03
2019-05-12T08:57:40.726Z,20.96
2019-05-12T09:02:48.855Z,20.95
2019-05-12T09:07:49.162Z,21.03
2019-05-12T09:12:54.167Z,20.82
2019-05-12T09:17:58.108Z,20.96
2019-05-12T09:23:02.751Z,20.98
2019-05-12T09:28:07.467Z,21.02
2019-05-12T09:33:11.257Z,21.07
2019-05-12T09:38:21.171Z,20.98
2019-05-12T09:43:20.578Z,20.92
2019-05-12T09:48:24.756Z,21.17
2019-05-12T09:53:28.870Z,21.22
2019-05-12T09:58:33.683Z,21.22
2019-05-12T10:03:40.026Z,21.18
2019-05-12T10:08:43.578Z,21.18
2019-05-12T10:13:47.468Z,21.26
2019-05-12T10:18:52.644Z,21.39
2019-05-12T10:24:00.501Z,21.55
2019-05-12T10:29:14.095Z,21.55
2019-05-12T10:34:19.716Z,21.54
2019-05-12T10:39:24.399Z,21.56
2019-05-12T10:44:29.898Z,21.56
2019-05-12T10:49:34.382Z,21.70
2019-05-12T10:54:38.203Z,21.64
2019-05-12T10:59:45.260Z,21.64
2019-05-12T11:04:48.092Z,21.72
2019-05-12T11:09:54.217Z,21.56
2019-05-12T11:15:01.329Z,21.59
2019-05-12T11:20:04.184Z,21.58
2019-05-12T11:25:08.035Z,21.58
2019-05-12T11:30:13.190Z,21.62
2019-05-12T11:35:17.815Z,21.65
2019-05-12T11:40:23.912Z,21.64
2019-05-12T11:45:28.077Z,21.64
2019-05-12T11:50:31.881Z,21.65
2019-05-12T11:55:35.705Z,21.67
2019-05-12T12:00:43.968Z,21.67
2019-05-12T12:05:47.131Z,21.69
2019-05-12T12:10:50.949Z,21.70
2019-05-12T12:15:54.877Z,21.74
2019-05-12T12:21:04.268Z,21.74
2019-05-12T12:26:04.366Z,21.74
2019-05-12T12:31:08.231Z,21.77
2019-05-12T12:36:14.438Z,21.78
2019-05-12T12:41:17.883Z,21.82
2019-05-12T12:46:25.495Z,21.86
2019-05-12T12:51:29.300Z,21.89
2019-05-12T12:56:34.064Z,21.96
2019-05-12T13:01:38.053Z,22.00
2019-05-12T13:06:43.718Z,22.00
2019-05-12T13:11:47.320Z,22.07
2019-05-12T13:16:54.790Z,22.08
2019-05-12T13:21:56.550Z,22.12
2019-05-12T13:27:00.332Z,22.15
2019-05-12T13:32:04.091Z,22.18
2019-05-12T13:37:09.322Z,22.24
2019-05-12T13:42:13.733Z,22.25
2019-05-12T13:47:17.499Z,22.25
2019-05-12T13:52:26.296Z,22.29
2019-05-12T13:57:26.845Z,22.24
2019-05-12T14:02:30.898Z,22.24
2019-05-12T14:07:34.655Z,22.30
2019-05-12T14:12:38.409Z,22.30
2019-05-12T14:17:43.546Z,22.30
2019-05-12T14:22:47.615Z,22.29
2019-05-12T14:27:53.431Z,22.29
2019-05-12T14:32:59.103Z,22.27
2019-05-12T14:38:03.849Z,22.27
2019-05-12T14:43:10.465Z,22.30
2019-05-12T14:48:13.831Z,22.30
2019-05-12T14:53:17.684Z,22.31
2019-05-12T14:58:23.766Z,22.30
2019-05-12T15:03:27.096Z,22.24
2019-05-12T15:08:36.275Z,22.24
2019-05-12T15:13:36.345Z,22.24
2019-05-12T15:18:46.566Z,22.50
2019-05-12T15:23:45.589Z,22.58
2019-05-12T15:28:49.369Z,22.64
2019-05-12T15:33:53.152Z,22.67
2019-05-12T15:38:58.842Z,22.63
2019-05-12T15:44:03.434Z,22.63
2019-05-12T15:49:08.942Z,22.67
2019-05-12T15:54:14.590Z,22.75
2019-05-12T15:59:18.533Z,22.70
2019-05-12T16:04:22.286Z,22.78
2019-05-12T16:09:26.043Z,22.78
2019-05-12T16:14:30.389Z,22.85
2019-05-12T16:19:35.394Z,22.83
2019-05-12T16:24:43.503Z,22.86
2019-05-12T16:29:49.836Z,23.02
2019-05-12T16:34:50.205Z,22.74
2019-05-12T16:39:54.174Z,22.77
2019-05-12T16:45:06.137Z,22.97
2019-05-12T16:50:06.284Z,22.97
2019-05-12T16:55:09.099Z,23.02
2019-05-12T17:00:13.903Z,22.69
2019-05-12T17:05:20.378Z,22.58
2019-05-12T17:10:24.396Z,22.61
2019-05-12T17:15:28.353Z,22.41
2019-05-12T17:20:33.379Z,22.43
2019-05-12T17:25:37.331Z,22.68
2019-05-12T17:30:43.539Z,22.52
2019-05-12T17:35:46.646Z,22.52
2019-05-12T17:40:58.793Z,22.29
2019-05-12T17:46:01.206Z,22.29
2019-05-12T17:51:03.277Z,22.32
2019-05-12T17:56:07.036Z,22.33
2019-05-12T18:01:10.802Z,22.34
2019-05-12T18:06:14.563Z,22.32
2019-05-12T18:11:18.323Z,22.32
2019-05-12T18:16:24.851Z,22.32
2019-05-12T18:21:31.023Z,22.32
2019-05-12T18:26:33.977Z,22.23
2019-05-12T18:31:37.900Z,22.34
2019-05-12T18:36:41.667Z,22.30
2019-05-12T18:41:45.552Z,22.34
2019-05-12T18:46:49.437Z,22.27
2019-05-12T18:51:55.227Z,22.27
2019-05-12T18:57:04.208Z,22.26
2019-05-12T19:02:04.423Z,22.19
2019-05-12T19:07:08.194Z,22.19
2019-05-12T19:12:17.966Z,22.16
2019-05-12T19:17:18.429Z,22.19
2019-05-12T19:22:24.207Z,22.15
2019-05-12T19:27:27.746Z,22.15
2019-05-12T19:32:33.613Z,22.14
2019-05-12T19:37:37.033Z,22.14
2019-05-12T19:42:40.838Z,22.12
2019-05-12T19:47:44.653Z,22.13
2019-05-12T19:52:48.542Z,22.13
2019-05-12T19:57:53.950Z,22.11
2019-05-12T20:02:57.807Z,22.10
2019-05-12T20:08:04.007Z,22.11
2019-05-12T20:13:07.295Z,22.12
2019-05-12T20:18:11.172Z,22.12
2019-05-12T20:23:15.060Z,22.19
2019-05-12T20:28:18.822Z,22.40
2019-05-12T20:33:24.040Z,22.38
2019-05-12T20:38:34.225Z,22.41
2019-05-12T20:43:38.178Z,22.39
2019-05-12T20:48:39.153Z,22.41
2019-05-12T20:53:43.596Z,22.41
2019-05-12T20:58:47.598Z,22.43
2019-05-12T21:03:51.537Z,22.39
2019-05-12T21:08:56.560Z,22.39
2019-05-12T21:14:00.913Z,22.40
2019-05-12T21:19:10.820Z,22.41
2019-05-12T21:24:13.913Z,22.42
2019-05-12T21:29:18.983Z,22.42
2019-05-12T21:34:25.356Z,22.39
2019-05-12T21:39:28.374Z,22.39
2019-05-12T21:44:32.176Z,22.41
2019-05-12T21:49:35.970Z,22.41
2019-05-12T21:54:39.974Z,22.41
2019-05-12T21:59:43.733Z,22.40
2019-05-12T22:04:47.645Z,22.41
2019-05-12T22:09:53.707Z,22.40
2019-05-12T22:14:57.152Z,22.40
2019-05-12T22:20:08.928Z,22.39
2019-05-12T22:25:09.579Z,22.42
2019-05-12T22:30:13.490Z,22.38
2019-05-12T22:35:22.052Z,22.41
2019-05-12T22:40:23.613Z,22.38
2019-05-12T22:45:27.709Z,22.39
2019-05-12T22:50:32.981Z,22.40
2019-05-12T22:55:37.020Z,22.41
2019-05-12T23:00:40.800Z,22.38
2019-05-12T23:05:44.575Z,22.41
2019-05-12T23:10:51.974Z,22.32
2019-05-12T23:15:53.984Z,22.32
2019-05-12T23:20:57.767Z,22.39
2019-05-12T23:26:02.052Z,22.40
2019-05-12T23:31:05.994Z,22.40
2019-05-12T23:36:15.823Z,22.38
2019-05-12T23:41:15.310Z,22.38
2019-05-12T23:46:19.102Z,22.33
2019-05-12T23:51:23.549Z,22.33
2019-05-12T23:56:27.462Z,22.33
